sensor_id;sensor_type;location;lat;lon;timestamp;temperature;humidity
21772;DHT22;11047;47.904;8.110;2023-04-15T00:01:09;0.20;99.90
21772;DHT22;11047;47.904;8.110;2023-04-15T00:03:37;0.60;99.90
21772;DHT22;11047;47.904;8.110;2023-04-15T00:06:04;1.00;99.90
21772;DHT22;11047;47.904;8.110;2023-04-15T00:08:32;0.20;99.90
21772;DHT22;11047;47.904;8.110;2023-04-15T00:10:59;0.20;99.90
21772;DHT22;11047;47.904;8.110;2023-04-15T00:13:27;0.20;99.90
21772;DHT22;11047;47.904;8.110;2023-04-15T00:15:54;0.00;99.90
21772;DHT22;11047;47.904;8.110;2023-04-15T00:18:22;0.00;99.90
21772;DHT22;11047;47.904;8.110;2023-04-15T00:20:50;0.30;99.90
21772;DHT22;11047;47.904;8.110;2023-04-15T00:23:17;0.70;99.90
21772;DHT22;11047;47.904;8.110;2023-04-15T00:25:44;-0.10;99.90
21772;DHT22;11047;47.904;8.110;2023-04-15T00:28:11;0.30;99.90
21772;DHT22;11047;47.904;8.110;2023-04-15T00:30:38;0.00;99.90
21772;DHT22;11047;47.904;8.110;2023-04-15T00:33:05;1.20;99.90
21772;DHT22;11047;47.904;8.110;2023-04-15T00:35:33;0.10;99.90
21772;DHT22;11047;47.904;8.110;2023-04-15T00:38:01;0.40;99.90
21772;DHT22;11047;47.904;8.110;2023-04-15T00:40:29;0.20;99.90
21772;DHT22;11047;47.904;8.110;2023-04-15T00:42:56;0.20;99.90
21772;DHT22;11047;47.904;8.110;2023-04-15T00:45:24;0.20;99.90
21772;DHT22;11047;47.904;8.110;2023-04-15T00:47:52;0.10;99.90
21772;DHT22;11047;47.904;8.110;2023-04-15T00:50:19;0.10;99.90
21772;DHT22;11047;47.904;8.110;2023-04-15T00:52:47;0.20;99.90
21772;DHT22;11047;47.904;8.110;2023-04-15T00:55:14;1.10;99.90
21772;DHT22;11047;47.904;8.110;2023-04-15T00:57:41;0.00;99.90
21772;DHT22;11047;47.904;8.110;2023-04-15T01:00:09;-0.10;99.90
21772;DHT22;11047;47.904;8.110;2023-04-15T01:02:36;-0.20;99.90
21772;DHT22;11047;47.904;8.110;2023-04-15T01:05:04;-0.20;99.90
21772;DHT22;11047;47.904;8.110;2023-04-15T01:07:32;-0.20;99.90
21772;DHT22;11047;47.904;8.110;2023-04-15T01:10:01;-0.10;99.90
21772;DHT22;11047;47.904;8.110;2023-04-15T01:12:28;-0.10;99.90
21772;DHT22;11047;47.904;8.110;2023-04-15T01:14:55;0.10;99.90
21772;DHT22;11047;47.904;8.110;2023-04-15T01:17:23;0.90;99.90
21772;DHT22;11047;47.904;8.110;2023-04-15T01:19:50;-0.10;99.90
21772;DHT22;11047;47.904;8.110;2023-04-15T01:22:18;-0.10;99.90
21772;DHT22;11047;47.904;8.110;2023-04-15T01:24:50;-0.10;99.90
21772;DHT22;11047;47.904;8.110;2023-04-15T01:27:21;0.20;99.90
21772;DHT22;11047;47.904;8.110;2023-04-15T01:29:48;0.50;99.90
21772;DHT22;11047;47.904;8.110;2023-04-15T01:32:15;0.00;99.90
21772;DHT22;11047;47.904;8.110;2023-04-15T01:34:42;0.30;99.90
21772;DHT22;11047;47.904;8.110;2023-04-15T01:37:09;0.10;99.90
21772;DHT22;11047;47.904;8.110;2023-04-15T01:39:36;0.00;99.90
21772;DHT22;11047;47.904;8.110;2023-04-15T01:42:04;0.40;99.90
21772;DHT22;11047;47.904;8.110;2023-04-15T01:44:32;0.10;99.90
21772;DHT22;11047;47.904;8.110;2023-04-15T01:46:59;0.70;99.90
21772;DHT22;11047;47.904;8.110;2023-04-15T01:49:26;1.20;99.90
21772;DHT22;11047;47.904;8.110;2023-04-15T01:51:53;0.10;99.90
21772;DHT22;11047;47.904;8.110;2023-04-15T01:54:20;0.10;99.90
21772;DHT22;11047;47.904;8.110;2023-04-15T01:56:47;0.00;99.90
21772;DHT22;11047;47.904;8.110;2023-04-15T01:59:14;0.30;99.90
21772;DHT22;11047;47.904;8.110;2023-04-15T02:01:42;-0.20;99.90
21772;DHT22;11047;47.904;8.110;2023-04-15T02:04:09;-0.20;99.90
21772;DHT22;11047;47.904;8.110;2023-04-15T02:06:41;-0.10;99.90
21772;DHT22;11047;47.904;8.110;2023-04-15T02:09:08;0.40;99.90
21772;DHT22;11047;47.904;8.110;2023-04-15T02:11:35;0.90;99.90
21772;DHT22;11047;47.904;8.110;2023-04-15T02:14:03;0.80;99.90
21772;DHT22;11047;47.904;8.110;2023-04-15T02:16:31;0.10;99.90
21772;DHT22;11047;47.904;8.110;2023-04-15T02:19:00;0.20;99.90
21772;DHT22;11047;47.904;8.110;2023-04-15T02:21:28;0.30;99.90
21772;DHT22;11047;47.904;8.110;2023-04-15T02:23:55;0.60;99.90
21772;DHT22;11047;47.904;8.110;2023-04-15T02:26:22;0.80;99.90
21772;DHT22;11047;47.904;8.110;2023-04-15T02:28:49;1.00;99.90
21772;DHT22;11047;47.904;8.110;2023-04-15T02:31:16;1.20;99.90
21772;DHT22;11047;47.904;8.110;2023-04-15T02:33:44;0.90;99.90
21772;DHT22;11047;47.904;8.110;2023-04-15T02:36:12;1.00;99.90
21772;DHT22;11047;47.904;8.110;2023-04-15T02:38:39;0.50;99.90
21772;DHT22;11047;47.904;8.110;2023-04-15T02:41:08;0.50;99.90
21772;DHT22;11047;47.904;8.110;2023-04-15T02:43:35;0.70;99.90
21772;DHT22;11047;47.904;8.110;2023-04-15T02:46:02;0.50;99.90
21772;DHT22;11047;47.904;8.110;2023-04-15T02:48:29;0.60;99.90
21772;DHT22;11047;47.904;8.110;2023-04-15T02:51:12;0.60;99.90
21772;DHT22;11047;47.904;8.110;2023-04-15T02:53:39;0.80;99.90
21772;DHT22;11047;47.904;8.110;2023-04-15T02:56:07;1.30;99.90
21772;DHT22;11047;47.904;8.110;2023-04-15T02:58:34;0.70;99.90
21772;DHT22;11047;47.904;8.110;2023-04-15T03:01:01;0.70;99.90
21772;DHT22;11047;47.904;8.110;2023-04-15T03:03:28;1.00;99.90
21772;DHT22;11047;47.904;8.110;2023-04-15T03:05:55;1.20;99.90
21772;DHT22;11047;47.904;8.110;2023-04-15T03:08:23;1.00;99.90
21772;DHT22;11047;47.904;8.110;2023-04-15T03:10:50;0.70;99.90
21772;DHT22;11047;47.904;8.110;2023-04-15T03:13:18;0.60;99.90
21772;DHT22;11047;47.904;8.110;2023-04-15T03:15:45;1.20;99.90
21772;DHT22;11047;47.904;8.110;2023-04-15T03:18:12;1.10;99.90
21772;DHT22;11047;47.904;8.110;2023-04-15T03:20:39;0.80;99.90
21772;DHT22;11047;47.904;8.110;2023-04-15T03:23:06;0.50;99.90
21772;DHT22;11047;47.904;8.110;2023-04-15T03:25:34;1.20;99.90
21772;DHT22;11047;47.904;8.110;2023-04-15T03:28:03;0.50;99.90
21772;DHT22;11047;47.904;8.110;2023-04-15T03:30:30;0.60;99.90
21772;DHT22;11047;47.904;8.110;2023-04-15T03:32:57;0.70;99.90
21772;DHT22;11047;47.904;8.110;2023-04-15T03:35:24;1.40;99.90
21772;DHT22;11047;47.904;8.110;2023-04-15T03:37:50;0.70;99.90
21772;DHT22;11047;47.904;8.110;2023-04-15T03:40:17;1.30;99.90
21772;DHT22;11047;47.904;8.110;2023-04-15T03:42:46;0.80;99.90
21772;DHT22;11047;47.904;8.110;2023-04-15T03:45:13;1.00;99.90
21772;DHT22;11047;47.904;8.110;2023-04-15T03:47:40;0.80;99.90
21772;DHT22;11047;47.904;8.110;2023-04-15T03:50:07;0.90;99.90
21772;DHT22;11047;47.904;8.110;2023-04-15T03:52:34;0.90;99.90
21772;DHT22;11047;47.904;8.110;2023-04-15T03:55:01;1.00;99.90
21772;DHT22;11047;47.904;8.110;2023-04-15T03:57:28;1.10;99.90
21772;DHT22;11047;47.904;8.110;2023-04-15T03:59:56;1.00;99.90
21772;DHT22;11047;47.904;8.110;2023-04-15T04:02:23;1.00;99.90
21772;DHT22;11047;47.904;8.110;2023-04-15T04:04:50;1.00;99.90
21772;DHT22;11047;47.904;8.110;2023-04-15T04:07:17;1.20;99.90
21772;DHT22;11047;47.904;8.110;2023-04-15T04:09:44;1.10;99.90
21772;DHT22;11047;47.904;8.110;2023-04-15T04:12:11;1.10;99.90
21772;DHT22;11047;47.904;8.110;2023-04-15T04:14:37;1.20;99.90
21772;DHT22;11047;47.904;8.110;2023-04-15T04:17:06;1.00;99.90
21772;DHT22;11047;47.904;8.110;2023-04-15T04:19:33;1.00;99.90
21772;DHT22;11047;47.904;8.110;2023-04-15T04:22:00;1.00;99.90
21772;DHT22;11047;47.904;8.110;2023-04-15T04:24:27;0.90;99.90
21772;DHT22;11047;47.904;8.110;2023-04-15T04:26:54;0.90;99.90
21772;DHT22;11047;47.904;8.110;2023-04-15T04:29:21;1.30;99.90
21772;DHT22;11047;47.904;8.110;2023-04-15T04:31:47;1.50;99.90
21772;DHT22;11047;47.904;8.110;2023-04-15T04:34:16;1.30;99.90
21772;DHT22;11047;47.904;8.110;2023-04-15T04:36:43;1.20;99.90
21772;DHT22;11047;47.904;8.110;2023-04-15T04:39:10;1.60;99.90
21772;DHT22;11047;47.904;8.110;2023-04-15T04:41:36;1.20;99.90
21772;DHT22;11047;47.904;8.110;2023-04-15T04:44:03;1.20;99.90
21772;DHT22;11047;47.904;8.110;2023-04-15T04:46:30;2.00;99.90
21772;DHT22;11047;47.904;8.110;2023-04-15T04:48:57;1.30;99.90
21772;DHT22;11047;47.904;8.110;2023-04-15T04:51:25;1.30;99.90
21772;DHT22;11047;47.904;8.110;2023-04-15T04:53:53;1.30;99.90
21772;DHT22;11047;47.904;8.110;2023-04-15T04:56:21;1.30;99.90
21772;DHT22;11047;47.904;8.110;2023-04-15T04:58:48;1.40;99.90
21772;DHT22;11047;47.904;8.110;2023-04-15T05:01:14;1.60;99.90
21772;DHT22;11047;47.904;8.110;2023-04-15T05:03:41;1.40;99.90
21772;DHT22;11047;47.904;8.110;2023-04-15T05:06:08;1.40;99.90
21772;DHT22;11047;47.904;8.110;2023-04-15T05:08:37;1.40;99.90
21772;DHT22;11047;47.904;8.110;2023-04-15T05:11:05;1.50;99.90
21772;DHT22;11047;47.904;8.110;2023-04-15T05:13:33;1.40;99.90
21772;DHT22;11047;47.904;8.110;2023-04-15T05:16:03;1.50;99.90
21772;DHT22;11047;47.904;8.110;2023-04-15T05:18:30;1.60;99.90
21772;DHT22;11047;47.904;8.110;2023-04-15T05:20:58;1.60;99.90
21772;DHT22;11047;47.904;8.110;2023-04-15T05:23:25;1.70;99.90
21772;DHT22;11047;47.904;8.110;2023-04-15T05:25:53;1.70;99.90
21772;DHT22;11047;47.904;8.110;2023-04-15T05:28:20;1.70;99.90
21772;DHT22;11047;47.904;8.110;2023-04-15T05:30:47;1.80;99.90
21772;DHT22;11047;47.904;8.110;2023-04-15T05:33:14;1.80;99.90
21772;DHT22;11047;47.904;8.110;2023-04-15T05:35:40;1.80;99.90
21772;DHT22;11047;47.904;8.110;2023-04-15T05:38:07;2.30;99.90
21772;DHT22;11047;47.904;8.110;2023-04-15T05:40:34;1.80;99.90
21772;DHT22;11047;47.904;8.110;2023-04-15T05:43:03;1.80;99.90
21772;DHT22;11047;47.904;8.110;2023-04-15T05:45:30;1.80;99.90
21772;DHT22;11047;47.904;8.110;2023-04-15T05:47:57;1.90;99.90
21772;DHT22;11047;47.904;8.110;2023-04-15T05:50:24;2.50;99.90
21772;DHT22;11047;47.904;8.110;2023-04-15T05:52:51;2.90;99.90
21772;DHT22;11047;47.904;8.110;2023-04-15T05:55:18;2.00;99.90
21772;DHT22;11047;47.904;8.110;2023-04-15T05:57:45;2.80;99.90
21772;DHT22;11047;47.904;8.110;2023-04-15T06:00:14;2.00;99.90
21772;DHT22;11047;47.904;8.110;2023-04-15T06:02:41;2.10;99.90
21772;DHT22;11047;47.904;8.110;2023-04-15T06:05:08;2.20;99.90
21772;DHT22;11047;47.904;8.110;2023-04-15T06:07:36;2.30;99.90
21772;DHT22;11047;47.904;8.110;2023-04-15T06:10:04;2.40;99.90
21772;DHT22;11047;47.904;8.110;2023-04-15T06:12:31;2.50;99.90
21772;DHT22;11047;47.904;8.110;2023-04-15T06:14:58;2.50;99.90
21772;DHT22;11047;47.904;8.110;2023-04-15T06:17:27;2.60;99.90
21772;DHT22;11047;47.904;8.110;2023-04-15T06:19:53;2.70;99.90
21772;DHT22;11047;47.904;8.110;2023-04-15T06:22:21;2.70;99.90
21772;DHT22;11047;47.904;8.110;2023-04-15T06:24:48;3.10;99.90
21772;DHT22;11047;47.904;8.110;2023-04-15T06:27:16;2.90;99.90
21772;DHT22;11047;47.904;8.110;2023-04-15T06:29:43;3.10;99.90
21772;DHT22;11047;47.904;8.110;2023-04-15T06:32:10;3.60;99.90
21772;DHT22;11047;47.904;8.110;2023-04-15T06:34:39;3.40;99.90
21772;DHT22;11047;47.904;8.110;2023-04-15T06:37:06;3.90;99.90
21772;DHT22;11047;47.904;8.110;2023-04-15T06:39:34;3.70;99.90
21772;DHT22;11047;47.904;8.110;2023-04-15T06:42:02;3.90;99.90
21772;DHT22;11047;47.904;8.110;2023-04-15T06:44:29;4.10;99.90
21772;DHT22;11047;47.904;8.110;2023-04-15T06:46:56;5.10;99.90
21772;DHT22;11047;47.904;8.110;2023-04-15T06:49:23;4.60;99.90
21772;DHT22;11047;47.904;8.110;2023-04-15T06:51:51;5.70;99.90
21772;DHT22;11047;47.904;8.110;2023-04-15T06:54:18;5.40;99.90
21772;DHT22;11047;47.904;8.110;2023-04-15T06:56:45;5.10;99.90
21772;DHT22;11047;47.904;8.110;2023-04-15T06:59:12;5.30;99.90
21772;DHT22;11047;47.904;8.110;2023-04-15T07:01:39;5.80;99.90
21772;DHT22;11047;47.904;8.110;2023-04-15T07:04:06;5.60;99.90
21772;DHT22;11047;47.904;8.110;2023-04-15T07:06:33;6.50;99.90
21772;DHT22;11047;47.904;8.110;2023-04-15T07:09:02;6.30;99.90
21772;DHT22;11047;47.904;8.110;2023-04-15T07:11:30;7.20;99.90
21772;DHT22;11047;47.904;8.110;2023-04-15T07:13:57;6.80;99.90
21772;DHT22;11047;47.904;8.110;2023-04-15T07:16:24;7.40;99.90
21772;DHT22;11047;47.904;8.110;2023-04-15T07:18:51;7.40;99.90
21772;DHT22;11047;47.904;8.110;2023-04-15T07:21:18;7.30;99.90
21772;DHT22;11047;47.904;8.110;2023-04-15T07:23:46;7.10;99.90
21772;DHT22;11047;47.904;8.110;2023-04-15T07:26:14;6.70;99.90
21772;DHT22;11047;47.904;8.110;2023-04-15T07:28:41;7.40;99.90
21772;DHT22;11047;47.904;8.110;2023-04-15T07:31:08;6.40;99.90
21772;DHT22;11047;47.904;8.110;2023-04-15T07:33:35;6.60;99.90
21772;DHT22;11047;47.904;8.110;2023-04-15T07:36:02;6.30;99.90
21772;DHT22;11047;47.904;8.110;2023-04-15T07:38:29;6.40;99.90
21772;DHT22;11047;47.904;8.110;2023-04-15T07:40:56;6.40;99.90
21772;DHT22;11047;47.904;8.110;2023-04-15T07:43:24;6.40;99.90
21772;DHT22;11047;47.904;8.110;2023-04-15T07:45:51;6.50;99.90
21772;DHT22;11047;47.904;8.110;2023-04-15T07:48:18;7.20;99.90
21772;DHT22;11047;47.904;8.110;2023-04-15T07:50:45;6.90;99.90
21772;DHT22;11047;47.904;8.110;2023-04-15T07:53:12;7.30;99.90
21772;DHT22;11047;47.904;8.110;2023-04-15T07:55:39;6.80;99.90
21772;DHT22;11047;47.904;8.110;2023-04-15T07:58:06;6.40;99.90
21772;DHT22;11047;47.904;8.110;2023-04-15T08:00:35;7.10;99.90
21772;DHT22;11047;47.904;8.110;2023-04-15T08:03:03;6.60;99.90
21772;DHT22;11047;47.904;8.110;2023-04-15T08:05:30;6.70;99.90
21772;DHT22;11047;47.904;8.110;2023-04-15T08:07:57;6.70;99.90
21772;DHT22;11047;47.904;8.110;2023-04-15T08:10:24;6.80;99.90
21772;DHT22;11047;47.904;8.110;2023-04-15T08:12:51;6.90;99.90
21772;DHT22;11047;47.904;8.110;2023-04-15T08:15:19;7.30;99.90
21772;DHT22;11047;47.904;8.110;2023-04-15T08:17:47;7.20;99.90
21772;DHT22;11047;47.904;8.110;2023-04-15T08:20:14;7.20;99.90
21772;DHT22;11047;47.904;8.110;2023-04-15T08:22:41;7.20;99.90
21772;DHT22;11047;47.904;8.110;2023-04-15T08:25:08;7.60;99.90
21772;DHT22;11047;47.904;8.110;2023-04-15T08:27:35;7.40;99.90
21772;DHT22;11047;47.904;8.110;2023-04-15T08:30:03;7.50;99.90
21772;DHT22;11047;47.904;8.110;2023-04-15T08:32:30;7.60;99.90
21772;DHT22;11047;47.904;8.110;2023-04-15T08:34:58;7.70;99.90
21772;DHT22;11047;47.904;8.110;2023-04-15T08:37:26;7.90;99.90
21772;DHT22;11047;47.904;8.110;2023-04-15T08:39:53;8.30;99.90
21772;DHT22;11047;47.904;8.110;2023-04-15T08:42:26;8.40;99.90
21772;DHT22;11047;47.904;8.110;2023-04-15T08:44:54;8.30;99.90
21772;DHT22;11047;47.904;8.110;2023-04-15T08:47:23;8.40;99.90
21772;DHT22;11047;47.904;8.110;2023-04-15T08:49:54;8.80;99.90
21772;DHT22;11047;47.904;8.110;2023-04-15T08:52:24;8.50;99.90
21772;DHT22;11047;47.904;8.110;2023-04-15T08:54:52;8.80;99.90
21772;DHT22;11047;47.904;8.110;2023-04-15T08:57:23;8.90;99.90
21772;DHT22;11047;47.904;8.110;2023-04-15T08:59:52;9.00;99.90
21772;DHT22;11047;47.904;8.110;2023-04-15T09:02:19;9.00;99.90
21772;DHT22;11047;47.904;8.110;2023-04-15T09:04:46;9.20;99.90
21772;DHT22;11047;47.904;8.110;2023-04-15T09:07:13;9.30;99.90
21772;DHT22;11047;47.904;8.110;2023-04-15T09:09:41;9.20;99.90
21772;DHT22;11047;47.904;8.110;2023-04-15T09:12:08;9.10;99.90
21772;DHT22;11047;47.904;8.110;2023-04-15T09:14:36;9.20;99.90
21772;DHT22;11047;47.904;8.110;2023-04-15T09:17:04;9.20;99.90
21772;DHT22;11047;47.904;8.110;2023-04-15T09:19:31;9.30;99.90
21772;DHT22;11047;47.904;8.110;2023-04-15T09:21:59;9.50;99.90
21772;DHT22;11047;47.904;8.110;2023-04-15T09:24:35;9.60;99.90
21772;DHT22;11047;47.904;8.110;2023-04-15T09:27:04;9.60;99.90
21772;DHT22;11047;47.904;8.110;2023-04-15T09:29:32;9.80;99.90
21772;DHT22;11047;47.904;8.110;2023-04-15T09:32:09;10.00;99.90
21772;DHT22;11047;47.904;8.110;2023-04-15T09:34:36;9.90;99.90
21772;DHT22;11047;47.904;8.110;2023-04-15T09:37:03;10.00;99.90
21772;DHT22;11047;47.904;8.110;2023-04-15T09:39:45;10.20;99.90
21772;DHT22;11047;47.904;8.110;2023-04-15T09:42:14;10.40;99.90
21772;DHT22;11047;47.904;8.110;2023-04-15T09:44:42;10.30;99.90
21772;DHT22;11047;47.904;8.110;2023-04-15T09:47:26;10.10;99.90
21772;DHT22;11047;47.904;8.110;2023-04-15T09:49:54;10.10;99.90
21772;DHT22;11047;47.904;8.110;2023-04-15T09:52:22;10.10;99.90
21772;DHT22;11047;47.904;8.110;2023-04-15T09:54:52;10.10;99.90
21772;DHT22;11047;47.904;8.110;2023-04-15T09:57:21;10.20;99.90
21772;DHT22;11047;47.904;8.110;2023-04-15T09:59:48;10.30;99.90
21772;DHT22;11047;47.904;8.110;2023-04-15T10:02:15;10.40;99.90
21772;DHT22;11047;47.904;8.110;2023-04-15T10:04:44;10.60;99.90
21772;DHT22;11047;47.904;8.110;2023-04-15T10:07:14;10.80;99.90
21772;DHT22;11047;47.904;8.110;2023-04-15T10:09:44;11.10;99.90
21772;DHT22;11047;47.904;8.110;2023-04-15T10:12:11;10.90;99.90
21772;DHT22;11047;47.904;8.110;2023-04-15T10:14:41;11.10;99.90
21772;DHT22;11047;47.904;8.110;2023-04-15T10:17:10;11.20;99.90
21772;DHT22;11047;47.904;8.110;2023-04-15T10:19:37;11.10;99.90
21772;DHT22;11047;47.904;8.110;2023-04-15T10:22:05;11.10;99.90
21772;DHT22;11047;47.904;8.110;2023-04-15T10:24:32;11.10;99.90
21772;DHT22;11047;47.904;8.110;2023-04-15T10:27:00;11.20;99.90
21772;DHT22;11047;47.904;8.110;2023-04-15T10:29:29;11.30;99.90
21772;DHT22;11047;47.904;8.110;2023-04-15T10:31:58;11.50;99.90
21772;DHT22;11047;47.904;8.110;2023-04-15T10:34:26;11.80;99.90
21772;DHT22;11047;47.904;8.110;2023-04-15T10:36:54;11.60;99.90
21772;DHT22;11047;47.904;8.110;2023-04-15T10:39:39;11.70;99.90
21772;DHT22;11047;47.904;8.110;2023-04-15T10:42:08;11.80;99.90
21772;DHT22;11047;47.904;8.110;2023-04-15T10:44:35;12.30;99.90
21772;DHT22;11047;47.904;8.110;2023-04-15T10:47:09;12.50;99.90
21772;DHT22;11047;47.904;8.110;2023-04-15T10:49:43;12.80;99.90
21772;DHT22;11047;47.904;8.110;2023-04-15T10:52:11;12.80;99.90
21772;DHT22;11047;47.904;8.110;2023-04-15T10:54:38;12.90;99.90
21772;DHT22;11047;47.904;8.110;2023-04-15T10:57:12;12.60;99.90
21772;DHT22;11047;47.904;8.110;2023-04-15T11:00:01;12.30;99.90
21772;DHT22;11047;47.904;8.110;2023-04-15T11:02:45;12.30;99.90
21772;DHT22;11047;47.904;8.110;2023-04-15T11:05:13;12.40;99.90
21772;DHT22;11047;47.904;8.110;2023-04-15T11:07:52;12.50;99.90
21772;DHT22;11047;47.904;8.110;2023-04-15T11:10:49;12.50;99.90
21772;DHT22;11047;47.904;8.110;2023-04-15T11:13:26;12.20;99.90
21772;DHT22;11047;47.904;8.110;2023-04-15T11:15:57;12.10;99.90
21772;DHT22;11047;47.904;8.110;2023-04-15T11:18:31;12.00;99.90
21772;DHT22;11047;47.904;8.110;2023-04-15T11:21:01;11.70;99.90
21772;DHT22;11047;47.904;8.110;2023-04-15T11:23:33;11.50;99.90
21772;DHT22;11047;47.904;8.110;2023-04-15T11:26:02;10.60;99.90
21772;DHT22;11047;47.904;8.110;2023-04-15T11:28:31;10.50;99.90
21772;DHT22;11047;47.904;8.110;2023-04-15T11:31:05;10.40;99.90
21772;DHT22;11047;47.904;8.110;2023-04-15T11:33:34;10.20;99.90
21772;DHT22;11047;47.904;8.110;2023-04-15T11:36:01;10.30;99.90
21772;DHT22;11047;47.904;8.110;2023-04-15T11:38:28;10.20;99.90
21772;DHT22;11047;47.904;8.110;2023-04-15T11:40:56;10.20;99.90
21772;DHT22;11047;47.904;8.110;2023-04-15T11:43:23;10.40;99.90
21772;DHT22;11047;47.904;8.110;2023-04-15T11:45:52;10.50;99.90
21772;DHT22;11047;47.904;8.110;2023-04-15T11:48:20;10.50;99.90
21772;DHT22;11047;47.904;8.110;2023-04-15T11:50:54;10.60;99.90
21772;DHT22;11047;47.904;8.110;2023-04-15T11:53:21;10.50;99.90
21772;DHT22;11047;47.904;8.110;2023-04-15T11:55:50;10.40;99.90
21772;DHT22;11047;47.904;8.110;2023-04-15T11:58:19;10.20;99.90
21772;DHT22;11047;47.904;8.110;2023-04-15T12:00:47;10.00;99.90
21772;DHT22;11047;47.904;8.110;2023-04-15T12:03:20;9.90;99.90
21772;DHT22;11047;47.904;8.110;2023-04-15T12:06:13;9.90;99.90
21772;DHT22;11047;47.904;8.110;2023-04-15T12:09:06;9.70;99.90
21772;DHT22;11047;47.904;8.110;2023-04-15T12:11:42;9.20;99.90
21772;DHT22;11047;47.904;8.110;2023-04-15T12:14:11;9.20;99.90
21772;DHT22;11047;47.904;8.110;2023-04-15T12:16:41;9.20;99.90
21772;DHT22;11047;47.904;8.110;2023-04-15T12:19:10;9.10;99.90
21772;DHT22;11047;47.904;8.110;2023-04-15T12:21:40;9.00;99.90
21772;DHT22;11047;47.904;8.110;2023-04-15T12:24:08;9.00;99.90
21772;DHT22;11047;47.904;8.110;2023-04-15T12:26:42;9.00;99.90
21772;DHT22;11047;47.904;8.110;2023-04-15T12:29:11;8.80;99.90
21772;DHT22;11047;47.904;8.110;2023-04-15T12:31:47;8.90;99.90
21772;DHT22;11047;47.904;8.110;2023-04-15T12:34:15;9.10;99.90
21772;DHT22;11047;47.904;8.110;2023-04-15T12:36:43;9.30;99.90
21772;DHT22;11047;47.904;8.110;2023-04-15T12:39:10;9.60;99.90
21772;DHT22;11047;47.904;8.110;2023-04-15T12:41:37;9.80;99.90
21772;DHT22;11047;47.904;8.110;2023-04-15T12:44:04;9.80;99.90
21772;DHT22;11047;47.904;8.110;2023-04-15T12:46:31;10.10;99.90
21772;DHT22;11047;47.904;8.110;2023-04-15T12:48:58;10.00;99.90
21772;DHT22;11047;47.904;8.110;2023-04-15T12:51:25;10.10;99.90
21772;DHT22;11047;47.904;8.110;2023-04-15T12:53:54;10.10;99.90
21772;DHT22;11047;47.904;8.110;2023-04-15T12:56:21;10.00;99.90
21772;DHT22;11047;47.904;8.110;2023-04-15T12:58:48;9.90;99.90
21772;DHT22;11047;47.904;8.110;2023-04-15T13:01:16;9.50;99.90
21772;DHT22;11047;47.904;8.110;2023-04-15T13:03:43;9.30;99.90
21772;DHT22;11047;47.904;8.110;2023-04-15T13:06:09;9.30;99.90
21772;DHT22;11047;47.904;8.110;2023-04-15T13:08:36;9.20;99.90
21772;DHT22;11047;47.904;8.110;2023-04-15T13:11:05;9.10;99.90
21772;DHT22;11047;47.904;8.110;2023-04-15T13:13:32;9.10;99.90
21772;DHT22;11047;47.904;8.110;2023-04-15T13:15:59;9.00;99.90
21772;DHT22;11047;47.904;8.110;2023-04-15T13:18:26;8.90;99.90
21772;DHT22;11047;47.904;8.110;2023-04-15T13:20:53;8.80;99.90
21772;DHT22;11047;47.904;8.110;2023-04-15T13:23:21;8.60;99.90
21772;DHT22;11047;47.904;8.110;2023-04-15T13:25:48;8.40;99.90
21772;DHT22;11047;47.904;8.110;2023-04-15T13:28:16;8.20;99.90
21772;DHT22;11047;47.904;8.110;2023-04-15T13:30:43;8.00;99.90
21772;DHT22;11047;47.904;8.110;2023-04-15T13:33:10;7.90;99.90
21772;DHT22;11047;47.904;8.110;2023-04-15T13:35:38;7.80;99.90
21772;DHT22;11047;47.904;8.110;2023-04-15T13:38:05;7.60;99.90
21772;DHT22;11047;47.904;8.110;2023-04-15T13:40:32;7.70;99.90
21772;DHT22;11047;47.904;8.110;2023-04-15T13:42:58;7.40;99.90
21772;DHT22;11047;47.904;8.110;2023-04-15T13:45:28;7.40;99.90
21772;DHT22;11047;47.904;8.110;2023-04-15T13:47:54;7.50;99.90
21772;DHT22;11047;47.904;8.110;2023-04-15T13:50:21;7.60;99.90
21772;DHT22;11047;47.904;8.110;2023-04-15T13:52:48;7.70;99.90
21772;DHT22;11047;47.904;8.110;2023-04-15T13:55:15;8.00;99.90
21772;DHT22;11047;47.904;8.110;2023-04-15T13:57:42;8.20;99.90
21772;DHT22;11047;47.904;8.110;2023-04-15T14:00:10;8.40;99.90
21772;DHT22;11047;47.904;8.110;2023-04-15T14:02:39;8.60;99.90
21772;DHT22;11047;47.904;8.110;2023-04-15T14:05:06;8.70;99.90
21772;DHT22;11047;47.904;8.110;2023-04-15T14:07:33;8.90;99.90
21772;DHT22;11047;47.904;8.110;2023-04-15T14:10:00;8.80;99.90
21772;DHT22;11047;47.904;8.110;2023-04-15T14:12:27;8.80;99.90
21772;DHT22;11047;47.904;8.110;2023-04-15T14:14:54;8.70;99.90
21772;DHT22;11047;47.904;8.110;2023-04-15T14:17:21;8.70;99.90
21772;DHT22;11047;47.904;8.110;2023-04-15T14:19:49;8.80;99.90
21772;DHT22;11047;47.904;8.110;2023-04-15T14:22:16;8.80;99.90
21772;DHT22;11047;47.904;8.110;2023-04-15T14:24:43;8.90;99.90
21772;DHT22;11047;47.904;8.110;2023-04-15T14:27:13;8.80;99.90
21772;DHT22;11047;47.904;8.110;2023-04-15T14:29:40;8.90;99.90
21772;DHT22;11047;47.904;8.110;2023-04-15T14:32:07;8.80;99.90
21772;DHT22;11047;47.904;8.110;2023-04-15T14:34:34;9.00;99.90
21772;DHT22;11047;47.904;8.110;2023-04-15T14:37:03;9.20;99.90
21772;DHT22;11047;47.904;8.110;2023-04-15T14:39:30;9.40;99.90
21772;DHT22;11047;47.904;8.110;2023-04-15T14:41:57;9.50;99.90
21772;DHT22;11047;47.904;8.110;2023-04-15T14:44:24;9.40;99.90
21772;DHT22;11047;47.904;8.110;2023-04-15T14:46:51;9.40;99.90
21772;DHT22;11047;47.904;8.110;2023-04-15T14:49:19;9.40;99.90
21772;DHT22;11047;47.904;8.110;2023-04-15T14:51:46;9.50;99.90
21772;DHT22;11047;47.904;8.110;2023-04-15T14:54:14;9.50;99.90
21772;DHT22;11047;47.904;8.110;2023-04-15T14:56:41;9.60;99.90
21772;DHT22;11047;47.904;8.110;2023-04-15T14:59:08;9.90;99.90
21772;DHT22;11047;47.904;8.110;2023-04-15T15:01:35;10.00;99.90
21772;DHT22;11047;47.904;8.110;2023-04-15T15:04:02;10.00;99.90
21772;DHT22;11047;47.904;8.110;2023-04-15T15:06:29;10.10;99.90
21772;DHT22;11047;47.904;8.110;2023-04-15T15:08:56;10.10;99.90
21772;DHT22;11047;47.904;8.110;2023-04-15T15:11:25;9.90;99.90
21772;DHT22;11047;47.904;8.110;2023-04-15T15:13:51;10.10;99.90
21772;DHT22;11047;47.904;8.110;2023-04-15T15:16:18;10.10;99.90
21772;DHT22;11047;47.904;8.110;2023-04-15T15:18:45;10.10;99.90
21772;DHT22;11047;47.904;8.110;2023-04-15T15:21:12;9.90;99.90
21772;DHT22;11047;47.904;8.110;2023-04-15T15:23:39;10.00;99.90
21772;DHT22;11047;47.904;8.110;2023-04-15T15:26:06;10.00;99.90
21772;DHT22;11047;47.904;8.110;2023-04-15T15:28:34;9.90;99.90
21772;DHT22;11047;47.904;8.110;2023-04-15T15:31:01;9.80;99.90
21772;DHT22;11047;47.904;8.110;2023-04-15T15:33:29;9.70;99.90
21772;DHT22;11047;47.904;8.110;2023-04-15T15:35:57;9.80;99.90
21772;DHT22;11047;47.904;8.110;2023-04-15T15:38:23;9.90;99.90
21772;DHT22;11047;47.904;8.110;2023-04-15T15:40:50;9.90;99.90
21772;DHT22;11047;47.904;8.110;2023-04-15T15:43:17;9.90;99.90
21772;DHT22;11047;47.904;8.110;2023-04-15T15:45:46;9.90;99.90
21772;DHT22;11047;47.904;8.110;2023-04-15T15:48:16;9.90;99.90